Time,TemperatureF,DewpointF,PressureIn,WindDirection,WindDirectionDegrees,WindSpeedMPH,WindSpeedGustMPH,Humidity,HourlyPrecipIn,Conditions,Clouds,dailyrainin,SoftwareType,DateUTC
2013-01-10 00:03:00,48.0,34.0,30.32,WNW,290,14.0,-999.0,57,-99.99,,,-99.99,,2013-01-10 05:03:00,
2013-01-10 00:12:00,48.0,36.0,30.32,West,260,8.0,-999.0,61,-99.99,,,-99.99,,2013-01-10 05:12:00,
2013-01-10 00:22:00,48.0,34.0,30.34,West,270,13.0,-999.0,57,-99.99,,,-99.99,,2013-01-10 05:22:00,
2013-01-10 00:33:00,48.0,36.0,30.34,WNW,290,10.0,-999.0,61,-99.99,,,-99.99,,2013-01-10 05:33:00,
2013-01-10 00:42:00,48.0,36.0,30.34,West,260,6.0,-999.0,61,-99.99,,,-99.99,,2013-01-10 05:42:00,
2013-01-10 00:52:00,46.0,34.0,30.34,West,260,6.0,-999.0,61,-99.99,,,-99.99,,2013-01-10 05:52:00,
2013-01-10 01:02:00,46.0,34.0,30.34,West,260,6.0,-999.0,61,-99.99,,,-99.99,,2013-01-10 06:02:00,
2013-01-10 01:12:00,46.0,36.0,30.35,West,260,3.0,-999.0,65,-99.99,,,-99.99,,2013-01-10 06:12:00,
2013-01-10 01:22:00,45.0,36.0,30.36,West,260,5.0,-999.0,70,-99.99,,,-99.99,,2013-01-10 06:22:00,
2013-01-10 01:32:00,45.0,36.0,30.36,WSW,250,5.0,-999.0,70,-99.99,,,-99.99,,2013-01-10 06:32:00,
2013-01-10 01:42:00,45.0,36.0,30.37,WSW,250,5.0,-999.0,70,-99.99,,,-99.99,,2013-01-10 06:42:00,
2013-01-10 01:52:00,45.0,36.0,30.37,WSW,250,3.0,-999.0,70,-99.99,,,-99.99,,2013-01-10 06:52:00,
2013-01-10 02:02:00,45.0,36.0,30.37,WSW,250,3.0,-999.0,70,-99.99,,,-99.99,,2013-01-10 07:02:00,
2013-01-10 02:12:00,45.0,36.0,30.38,West,260,3.0,-999.0,70,-99.99,,,-99.99,,2013-01-10 07:12:00,
2013-01-10 02:22:00,43.0,36.0,30.39,WNW,300,3.0,-999.0,75,-99.99,,,-99.99,,2013-01-10 07:22:00,
2013-01-10 02:32:00,43.0,36.0,30.39,West,270,5.0,-999.0,75,-99.99,,,-99.99,,2013-01-10 07:32:00,
2013-01-10 02:42:00,43.0,36.0,30.39,West,280,6.0,-999.0,75,-99.99,,,-99.99,,2013-01-10 07:42:00,
2013-01-10 02:52:00,43.0,34.0,30.40,WNW,300,5.0,-999.0,70,-99.99,,,-99.99,,2013-01-10 07:52:00,
2013-01-10 03:02:00,43.0,34.0,30.40,WNW,300,5.0,-999.0,70,-99.99,,,-99.99,,2013-01-10 08:02:00,
2013-01-10 03:12:00,45.0,34.0,30.41,West,270,6.0,-999.0,65,-99.99,,,-99.99,,2013-01-10 08:12:00,
2013-01-10 03:22:00,43.0,34.0,30.40,WNW,290,5.0,-999.0,70,-99.99,,,-99.99,,2013-01-10 08:22:00,
2013-01-10 03:32:00,43.0,32.0,30.40,WNW,290,7.0,-999.0,65,-99.99,,,-99.99,,2013-01-10 08:32:00,
2013-01-10 03:42:00,45.0,32.0,30.40,WNW,300,9.0,-999.0,61,-99.99,,,-99.99,,2013-01-10 08:42:00,
2013-01-10 03:52:00,45.0,32.0,30.40,NW,310,6.0,-999.0,61,-99.99,,,-99.99,,2013-01-10 08:52:00,
2013-01-10 04:02:00,45.0,32.0,30.40,NW,310,6.0,-999.0,61,-99.99,,,-99.99,,2013-01-10 09:02:00,
2013-01-10 04:12:00,43.0,32.0,30.41,WNW,290,7.0,-999.0,65,-99.99,,,-99.99,,2013-01-10 09:12:00,
2013-01-10 04:22:00,43.0,32.0,30.41,NW,320,7.0,-999.0,65,-99.99,,,-99.99,,2013-01-10 09:22:00,
2013-01-10 04:32:00,43.0,32.0,30.41,NW,320,8.0,-999.0,65,-99.99,,,-99.99,,2013-01-10 09:32:00,
2013-01-10 04:42:00,43.0,32.0,30.41,NNW,330,8.0,-999.0,65,-99.99,,,-99.99,,2013-01-10 09:42:00,
2013-01-10 04:52:00,43.0,32.0,30.41,NW,320,6.0,-999.0,65,-99.99,,,-99.99,,2013-01-10 09:52:00,
2013-01-10 05:03:00,43.0,32.0,30.41,NW,320,6.0,-999.0,65,-99.99,,,-99.99,,2013-01-10 10:03:00,
2013-01-10 05:12:00,41.0,32.0,30.42,NW,320,6.0,-999.0,70,-99.99,,,-99.99,,2013-01-10 10:12:00,
2013-01-10 05:22:00,41.0,32.0,30.42,WNW,300,6.0,-999.0,70,-99.99,,,-99.99,,2013-01-10 10:22:00,
2013-01-10 05:32:00,41.0,32.0,30.42,NW,310,6.0,-999.0,70,-99.99,,,-99.99,,2013-01-10 10:32:00,
2013-01-10 05:42:00,41.0,30.0,30.43,NNW,330,6.0,-999.0,65,-99.99,,,-99.99,,2013-01-10 10:42:00,
2013-01-10 05:52:00,41.0,30.0,30.43,NW,320,6.0,-999.0,65,-99.99,,,-99.99,,2013-01-10 10:52:00,
2013-01-10 06:02:00,41.0,30.0,30.43,NW,320,6.0,-999.0,65,-99.99,,,-99.99,,2013-01-10 11:02:00,
2013-01-10 06:12:00,41.0,28.0,30.44,NNW,330,7.0,-999.0,60,-99.99,,,-99.99,,2013-01-10 11:12:00,
2013-01-10 06:22:00,41.0,28.0,30.45,NW,320,5.0,-999.0,60,-99.99,,,-99.99,,2013-01-10 11:22:00,
2013-01-10 06:33:00,39.0,28.0,30.45,NNW,340,6.0,-999.0,64,-99.99,,,-99.99,,2013-01-10 11:33:00,
2013-01-10 06:43:00,39.0,28.0,30.45,NNW,330,6.0,-999.0,64,-99.99,,,-99.99,,2013-01-10 11:43:00,
2013-01-10 06:52:00,39.0,28.0,30.46,WNW,300,5.0,-999.0,64,-99.99,,,-99.99,,2013-01-10 11:52:00,
2013-01-10 07:03:00,39.0,28.0,30.46,WNW,300,5.0,-999.0,64,-99.99,,,-99.99,,2013-01-10 12:03:00,
2013-01-10 07:12:00,39.0,28.0,30.46,NW,320,3.0,-999.0,64,-99.99,,,-99.99,,2013-01-10 12:12:00,
2013-01-10 07:22:00,39.0,27.0,30.47,NW,320,2.0,-999.0,60,-99.99,,,-99.99,,2013-01-10 12:22:00,
2013-01-10 07:33:00,39.0,27.0,30.48,NNW,330,5.0,-999.0,60,-99.99,,,-99.99,,2013-01-10 12:33:00,
2013-01-10 07:43:00,37.0,27.0,30.49,NNW,340,3.0,-999.0,64,-99.99,,,-99.99,,2013-01-10 12:43:00,
2013-01-10 07:53:00,37.0,27.0,30.49,WNW,300,3.0,-999.0,64,-99.99,,,-99.99,,2013-01-10 12:53:00,
2013-01-10 08:02:00,37.0,27.0,30.49,WNW,300,3.0,-999.0,64,-99.99,,,-99.99,,2013-01-10 13:02:00,
2013-01-10 08:12:00,37.0,27.0,30.50,WNW,300,2.0,-999.0,64,-99.99,,,-99.99,,2013-01-10 13:12:00,
2013-01-10 08:22:00,37.0,28.0,30.51,West,270,3.0,-999.0,69,-99.99,,,-99.99,,2013-01-10 13:22:00,
2013-01-10 08:32:00,37.0,28.0,30.52,WNW,290,3.0,-999.0,69,-99.99,,,-99.99,,2013-01-10 13:32:00,
2013-01-10 08:42:00,41.0,28.0,30.53,WNW,300,2.0,-999.0,60,-99.99,,,-99.99,,2013-01-10 13:42:00,
2013-01-10 08:52:00,41.0,28.0,30.54,NW,310,3.0,-999.0,60,-99.99,,,-99.99,,2013-01-10 13:52:00,
2013-01-10 09:02:00,41.0,28.0,30.54,NW,310,3.0,-999.0,60,-99.99,,,-99.99,,2013-01-10 14:02:00,
2013-01-10 09:12:00,43.0,28.0,30.54,NNW,330,5.0,-999.0,56,-99.99,,,-99.99,,2013-01-10 14:12:00,
2013-01-10 09:22:00,45.0,28.0,30.54,NNW,330,8.0,-999.0,52,-99.99,,,-99.99,,2013-01-10 14:22:00,
2013-01-10 09:33:00,45.0,27.0,30.54,NNW,330,8.0,-999.0,48,-99.99,,,-99.99,,2013-01-10 14:33:00,
2013-01-10 09:43:00,45.0,27.0,30.55,NW,310,6.0,-999.0,48,-99.99,,,-99.99,,2013-01-10 14:43:00,
2013-01-10 09:53:00,45.0,27.0,30.55,NNW,330,9.0,-999.0,48,-99.99,,,-99.99,,2013-01-10 14:53:00,
2013-01-10 10:03:00,45.0,27.0,30.55,NNW,330,9.0,-999.0,48,-99.99,,,-99.99,,2013-01-10 15:03:00,
2013-01-10 10:12:00,46.0,27.0,30.56,NNW,340,12.0,16.0,45,-99.99,,,-99.99,,2013-01-10 15:12:00,
2013-01-10 10:23:00,46.0,27.0,30.55,North,350,7.0,-999.0,45,-99.99,,,-99.99,,2013-01-10 15:23:00,
2013-01-10 10:33:00,46.0,27.0,30.55,North,350,6.0,-999.0,45,-99.99,,,-99.99,,2013-01-10 15:33:00,
2013-01-10 10:43:00,46.0,27.0,30.55,NNW,340,7.0,16.0,45,-99.99,,,-99.99,,2013-01-10 15:43:00,
2013-01-10 10:53:00,46.0,27.0,30.55,North,0,9.0,-999.0,45,-99.99,,,-99.99,,2013-01-10 15:53:00,
2013-01-10 11:03:00,46.0,27.0,30.55,North,0,9.0,-999.0,45,-99.99,,,-99.99,,2013-01-10 16:03:00,
2013-01-10 11:13:00,48.0,27.0,30.54,NW,320,9.0,-999.0,42,-99.99,,,-99.99,,2013-01-10 16:13:00,
2013-01-10 11:23:00,48.0,27.0,30.54,North,350,7.0,-999.0,42,-99.99,,,-99.99,,2013-01-10 16:23:00,
2013-01-10 11:33:00,48.0,27.0,30.53,NW,310,7.0,-999.0,42,-99.99,,,-99.99,,2013-01-10 16:33:00,
2013-01-10 11:43:00,48.0,27.0,30.52,NW,310,10.0,-999.0,42,-99.99,,,-99.99,,2013-01-10 16:43:00,
2013-01-10 11:53:00,48.0,27.0,30.52,NW,310,9.0,-999.0,42,-99.99,,,-99.99,,2013-01-10 16:53:00,
2013-01-10 12:03:00,48.0,27.0,30.52,NW,310,9.0,-999.0,42,-99.99,,,-99.99,,2013-01-10 17:03:00,
2013-01-10 12:12:00,50.0,27.0,30.52,NNW,330,10.0,-999.0,39,-99.99,,,-99.99,,2013-01-10 17:12:00,
2013-01-10 12:22:00,50.0,27.0,30.51,NW,310,6.0,-999.0,39,-99.99,,,-99.99,,2013-01-10 17:22:00,
2013-01-10 12:33:00,50.0,27.0,30.50,NNW,340,8.0,16.0,39,-99.99,,,-99.99,,2013-01-10 17:33:00,
2013-01-10 12:42:00,50.0,27.0,30.50,WNW,300,10.0,-999.0,39,-99.99,,,-99.99,,2013-01-10 17:42:00,
2013-01-10 12:53:00,50.0,27.0,30.50,NNW,330,9.0,-999.0,39,-99.99,,,-99.99,,2013-01-10 17:53:00,
2013-01-10 13:03:00,50.0,27.0,30.50,NNW,330,9.0,-999.0,39,-99.99,,,-99.99,,2013-01-10 18:03:00,
2013-01-10 13:12:00,50.0,27.0,30.49,WNW,290,10.0,-999.0,39,-99.99,,,-99.99,,2013-01-10 18:12:00,
2013-01-10 13:23:00,50.0,27.0,30.49,WNW,300,15.0,17.0,39,-99.99,,,-99.99,,2013-01-10 18:23:00,
2013-01-10 13:33:00,50.0,27.0,30.50,WNW,300,7.0,17.0,39,-99.99,,,-99.99,,2013-01-10 18:33:00,
2013-01-10 13:43:00,50.0,27.0,30.50,WNW,290,12.0,-999.0,39,-99.99,,,-99.99,,2013-01-10 18:43:00,
2013-01-10 13:52:00,50.0,27.0,30.50,NNW,340,7.0,-999.0,39,-99.99,,,-99.99,,2013-01-10 18:52:00,
2013-01-10 14:03:00,50.0,27.0,30.50,NNW,340,7.0,-999.0,39,-99.99,,,-99.99,,2013-01-10 19:03:00,
2013-01-10 14:13:00,50.0,27.0,30.50,NNW,330,9.0,-999.0,39,-99.99,,,-99.99,,2013-01-10 19:13:00,
2013-01-10 14:23:00,50.0,27.0,30.50,NNW,330,8.0,-999.0,39,-99.99,,,-99.99,,2013-01-10 19:23:00,
2013-01-10 14:33:00,50.0,27.0,30.50,WNW,300,12.0,16.0,39,-99.99,,,-99.99,,2013-01-10 19:33:00,
2013-01-10 14:43:00,50.0,27.0,30.51,NW,320,8.0,-999.0,39,-99.99,,,-99.99,,2013-01-10 19:43:00,
2013-01-10 14:53:00,50.0,27.0,30.51,WNW,300,8.0,-999.0,39,-99.99,,,-99.99,,2013-01-10 19:53:00,
2013-01-10 15:03:00,50.0,27.0,30.51,WNW,300,8.0,-999.0,39,-99.99,,,-99.99,,2013-01-10 20:03:00,
2013-01-10 15:13:00,50.0,27.0,30.51,NNW,330,8.0,-999.0,39,-99.99,,,-99.99,,2013-01-10 20:13:00,
2013-01-10 15:24:00,50.0,27.0,30.52,NW,320,8.0,16.0,39,-99.99,,,-99.99,,2013-01-10 20:24:00,
2013-01-10 15:33:00,50.0,27.0,30.52,NNW,330,9.0,-999.0,39,-99.99,,,-99.99,,2013-01-10 20:33:00,
2013-01-10 15:43:00,50.0,27.0,30.52,WNW,300,6.0,-999.0,39,-99.99,,,-99.99,,2013-01-10 20:43:00,
2013-01-10 15:53:00,50.0,27.0,30.51,North,350,10.0,-999.0,39,-99.99,,,-99.99,,2013-01-10 20:53:00,
2013-01-10 16:04:00,50.0,27.0,30.51,North,350,10.0,-999.0,39,-99.99,,,-99.99,,2013-01-10 21:04:00,
2013-01-10 16:13:00,48.0,27.0,30.52,WNW,300,9.0,-999.0,42,-99.99,,,-99.99,,2013-01-10 21:13:00,
2013-01-10 16:23:00,48.0,27.0,30.51,NNW,330,8.0,-999.0,42,-99.99,,,-99.99,,2013-01-10 21:23:00,
2013-01-10 16:33:00,48.0,27.0,30.52,NNW,330,7.0,-999.0,42,-99.99,,,-99.99,,2013-01-10 21:33:00,
2013-01-10 16:42:00,48.0,27.0,30.52,NNW,330,8.0,-999.0,42,-99.99,,,-99.99,,2013-01-10 21:42:00,
2013-01-10 16:53:00,46.0,27.0,30.52,WNW,300,3.0,-999.0,45,-99.99,,,-99.99,,2013-01-10 21:53:00,
2013-01-10 17:04:00,46.0,27.0,30.52,WNW,300,3.0,-999.0,45,-99.99,,,-99.99,,2013-01-10 22:04:00,
2013-01-10 17:12:00,45.0,28.0,30.51,NW,320,6.0,-999.0,52,-99.99,,,-99.99,,2013-01-10 22:12:00,
2013-01-10 17:26:00,45.0,28.0,30.52,NW,320,6.0,-999.0,52,-99.99,,,-99.99,,2013-01-10 22:26:00,
2013-01-10 17:33:00,45.0,28.0,30.52,NW,320,3.0,-999.0,52,-99.99,,,-99.99,,2013-01-10 22:33:00,
2013-01-10 17:43:00,45.0,28.0,30.52,NNW,330,5.0,-999.0,52,-99.99,,,-99.99,,2013-01-10 22:43:00,
2013-01-10 18:03:00,43.0,28.0,30.52,NW,310,3.0,-999.0,56,-99.99,,,-99.99,,2013-01-10 23:03:00,
2013-01-10 18:13:00,41.0,28.0,30.52,NNW,330,2.0,-999.0,60,-99.99,,,-99.99,,2013-01-10 23:13:00,
2013-01-10 18:23:00,39.0,28.0,30.52,North,0,0.0,-999.0,64,-99.99,,,-99.99,,2013-01-10 23:23:00,
2013-01-10 18:33:00,39.0,28.0,30.52,WSW,240,2.0,-999.0,64,-99.99,,,-99.99,,2013-01-10 23:33:00,
2013-01-10 18:43:00,37.0,28.0,30.53,WNW,290,3.0,-999.0,69,-99.99,,,-99.99,,2013-01-10 23:43:00,
2013-01-10 18:53:00,39.0,28.0,30.52,NW,320,2.0,-999.0,64,-99.99,,,-99.99,,2013-01-10 23:53:00,
2013-01-10 19:03:00,39.0,28.0,30.52,NW,320,2.0,-999.0,64,-99.99,,,-99.99,,2013-01-11 00:03:00,
2013-01-10 19:13:00,39.0,28.0,30.52,ESE,110,1.0,-999.0,64,-99.99,,,-99.99,,2013-01-11 00:13:00,
2013-01-10 19:23:00,37.0,28.0,30.53,SW,230,1.0,-999.0,69,-99.99,,,-99.99,,2013-01-11 00:23:00,
2013-01-10 19:33:00,37.0,28.0,30.53,WNW,300,1.0,-999.0,69,-99.99,,,-99.99,,2013-01-11 00:33:00,
2013-01-10 19:42:00,37.0,28.0,30.54,West,270,3.0,-999.0,69,-99.99,,,-99.99,,2013-01-11 00:42:00,
2013-01-10 19:52:00,37.0,28.0,30.54,North,0,0.0,-999.0,69,-99.99,,,-99.99,,2013-01-11 00:52:00,
2013-01-10 20:03:00,37.0,28.0,30.54,North,0,0.0,-999.0,69,-99.99,,,-99.99,,2013-01-11 01:03:00,
2013-01-10 20:13:00,37.0,28.0,30.53,ENE,70,1.0,-999.0,69,-99.99,,,-99.99,,2013-01-11 01:13:00,
2013-01-10 20:23:00,37.0,30.0,30.53,North,360,1.0,-999.0,74,-99.99,,,-99.99,,2013-01-11 01:23:00,
2013-01-10 20:34:00,37.0,30.0,30.53,North,10,1.0,-999.0,74,-99.99,,,-99.99,,2013-01-11 01:34:00,
2013-01-10 20:43:00,37.0,30.0,30.52,NE,50,1.0,-999.0,74,-99.99,,,-99.99,,2013-01-11 01:43:00,
2013-01-10 20:53:00,36.0,28.0,30.52,East,80,2.0,-999.0,74,-99.99,,,-99.99,,2013-01-11 01:53:00,
2013-01-10 21:03:00,36.0,28.0,30.52,East,80,2.0,-999.0,74,-99.99,,,-99.99,,2013-01-11 02:03:00,
2013-01-10 21:13:00,36.0,28.0,30.52,North,0,2.0,-999.0,74,-99.99,,,-99.99,,2013-01-11 02:13:00,
2013-01-10 21:23:00,34.0,28.0,30.52,North,0,0.0,-999.0,80,-99.99,,,-99.99,,2013-01-11 02:23:00,
2013-01-10 21:33:00,34.0,28.0,30.52,East,80,1.0,-999.0,80,-99.99,,,-99.99,,2013-01-11 02:33:00,
2013-01-10 21:43:00,34.0,28.0,30.52,North,0,0.0,-999.0,80,-99.99,,,-99.99,,2013-01-11 02:43:00,
2013-01-10 21:53:00,34.0,28.0,30.52,ENE,60,1.0,-999.0,80,-99.99,,,-99.99,,2013-01-11 02:53:00,
2013-01-10 22:03:00,34.0,28.0,30.52,ENE,60,1.0,-999.0,80,-99.99,,,-99.99,,2013-01-11 03:03:00,
2013-01-10 22:12:00,32.0,28.0,30.52,NNE,20,3.0,-999.0,86,-99.99,,,-99.99,,2013-01-11 03:12:00,
2013-01-10 22:23:00,32.0,28.0,30.53,SW,220,1.0,-999.0,86,-99.99,,,-99.99,,2013-01-11 03:23:00,
2013-01-10 22:33:00,32.0,28.0,30.52,South,190,2.0,-999.0,86,-99.99,,,-99.99,,2013-01-11 03:33:00,
2013-01-10 22:43:00,32.0,28.0,30.53,WSW,240,2.0,-999.0,86,-99.99,,,-99.99,,2013-01-11 03:43:00,
2013-01-10 22:53:00,30.0,27.0,30.53,North,0,0.0,-999.0,86,-99.99,,,-99.99,,2013-01-11 03:53:00,
2013-01-10 23:02:00,30.0,27.0,30.53,North,0,0.0,-999.0,86,-99.99,,,-99.99,,2013-01-11 04:02:00,
2013-01-10 23:12:00,32.0,27.0,30.53,North,0,0.0,-999.0,80,-99.99,,,-99.99,,2013-01-11 04:12:00,
2013-01-10 23:22:00,32.0,27.0,30.54,North,0,0.0,-999.0,80,-99.99,,,-99.99,,2013-01-11 04:22:00,
2013-01-10 23:33:00,32.0,27.0,30.53,NE,50,1.0,-999.0,80,-99.99,,,-99.99,,2013-01-11 04:33:00,
2013-01-10 23:43:00,32.0,28.0,30.53,North,0,0.0,-999.0,86,-99.99,,,-99.99,,2013-01-11 04:43:00,
2013-01-10 23:52:00,32.0,28.0,30.53,North,0,0.0,-999.0,86,-99.99,,,-99.99,,2013-01-11 04:52:00,